sensor_id;sensor_type;location;lat;lon;timestamp;pressure;altitude;pressure_sealevel;temperature;humidity
61757;BME280;57225;61.460;24.060;2023-04-30T00:02:25;99225.84;;;3.14;100.00
61757;BME280;57225;61.460;24.060;2023-04-30T00:05:09;99212.03;;;3.11;100.00
61757;BME280;57225;61.460;24.060;2023-04-30T00:07:54;99213.69;;;3.15;100.00
61757;BME280;57225;61.460;24.060;2023-04-30T00:10:38;99195.44;;;3.04;100.00
61757;BME280;57225;61.460;24.060;2023-04-30T00:13:23;99204.91;;;3.06;100.00
61757;BME280;57225;61.460;24.060;2023-04-30T00:16:07;99197.34;;;3.00;100.00
61757;BME280;57225;61.460;24.060;2023-04-30T00:18:52;99189.38;;;2.91;100.00
61757;BME280;57225;61.460;24.060;2023-04-30T00:21:36;99186.97;;;2.86;100.00
61757;BME280;57225;61.460;24.060;2023-04-30T00:24:20;99174.78;;;2.83;100.00
61757;BME280;57225;61.460;24.060;2023-04-30T00:27:05;99181.78;;;2.77;100.00
61757;BME280;57225;61.460;24.060;2023-04-30T00:29:50;99185.69;;;2.76;100.00
61757;BME280;57225;61.460;24.060;2023-04-30T00:32:34;99172.25;;;2.71;100.00
61757;BME280;57225;61.460;24.060;2023-04-30T00:35:19;99170.66;;;2.70;100.00
61757;BME280;57225;61.460;24.060;2023-04-30T00:38:03;99158.09;;;2.73;100.00
61757;BME280;57225;61.460;24.060;2023-04-30T00:40:48;99166.06;;;2.78;100.00
61757;BME280;57225;61.460;24.060;2023-04-30T00:43:32;99159.28;;;2.72;100.00
61757;BME280;57225;61.460;24.060;2023-04-30T00:46:17;99152.56;;;2.69;100.00
61757;BME280;57225;61.460;24.060;2023-04-30T00:49:01;99142.38;;;2.70;100.00
61757;BME280;57225;61.460;24.060;2023-04-30T00:51:48;99143.16;;;2.70;100.00
61757;BME280;57225;61.460;24.060;2023-04-30T00:54:32;99135.25;;;2.65;100.00
61757;BME280;57225;61.460;24.060;2023-04-30T00:57:17;99129.78;;;2.69;100.00
61757;BME280;57225;61.460;24.060;2023-04-30T01:00:01;99107.66;;;2.58;100.00
61757;BME280;57225;61.460;24.060;2023-04-30T01:02:47;99120.94;;;2.53;100.00
61757;BME280;57225;61.460;24.060;2023-04-30T01:05:32;99116.59;;;2.52;100.00
61757;BME280;57225;61.460;24.060;2023-04-30T01:08:17;99113.69;;;2.41;100.00
61757;BME280;57225;61.460;24.060;2023-04-30T01:14:12;99103.72;;;2.29;100.00
61757;BME280;57225;61.460;24.060;2023-04-30T01:17:07;99102.06;;;2.21;100.00
61757;BME280;57225;61.460;24.060;2023-04-30T01:19:56;99095.69;;;2.14;100.00
61757;BME280;57225;61.460;24.060;2023-04-30T01:29:16;99080.34;;;2.13;100.00
61757;BME280;57225;61.460;24.060;2023-04-30T01:32:02;99088.13;;;2.07;100.00
61757;BME280;57225;61.460;24.060;2023-04-30T01:34:46;99079.41;;;2.01;100.00
61757;BME280;57225;61.460;24.060;2023-04-30T01:37:44;99066.94;;;2.08;100.00
61757;BME280;57225;61.460;24.060;2023-04-30T01:43:53;99033.00;;;1.96;100.00
61757;BME280;57225;61.460;24.060;2023-04-30T01:46:39;99053.66;;;2.13;100.00
61757;BME280;57225;61.460;24.060;2023-04-30T01:49:41;99046.34;;;2.24;100.00
61757;BME280;57225;61.460;24.060;2023-04-30T01:52:52;99040.09;;;2.27;100.00
61757;BME280;57225;61.460;24.060;2023-04-30T01:55:42;99039.63;;;2.22;100.00
61757;BME280;57225;61.460;24.060;2023-04-30T01:58:26;99035.31;;;2.21;100.00
61757;BME280;57225;61.460;24.060;2023-04-30T02:01:27;99026.28;;;2.20;100.00
61757;BME280;57225;61.460;24.060;2023-04-30T02:04:12;99019.66;;;2.25;100.00
61757;BME280;57225;61.460;24.060;2023-04-30T02:06:57;99016.06;;;2.21;100.00
61757;BME280;57225;61.460;24.060;2023-04-30T02:09:41;99011.75;;;2.23;100.00
61757;BME280;57225;61.460;24.060;2023-04-30T02:12:26;99009.78;;;2.20;100.00
61757;BME280;57225;61.460;24.060;2023-04-30T02:15:13;99008.09;;;2.12;100.00
61757;BME280;57225;61.460;24.060;2023-04-30T02:17:58;98996.69;;;2.10;100.00
61757;BME280;57225;61.460;24.060;2023-04-30T02:20:42;98995.16;;;2.13;100.00
61757;BME280;57225;61.460;24.060;2023-04-30T02:23:27;98986.16;;;2.16;100.00
61757;BME280;57225;61.460;24.060;2023-04-30T02:26:12;98968.41;;;2.10;100.00
61757;BME280;57225;61.460;24.060;2023-04-30T02:28:56;98986.22;;;2.23;100.00
61757;BME280;57225;61.460;24.060;2023-04-30T02:31:41;98972.16;;;2.28;100.00
61757;BME280;57225;61.460;24.060;2023-04-30T02:34:26;98972.66;;;2.37;100.00
61757;BME280;57225;61.460;24.060;2023-04-30T02:37:10;98967.53;;;2.35;100.00
61757;BME280;57225;61.460;24.060;2023-04-30T02:39:55;98966.00;;;2.38;100.00
61757;BME280;57225;61.460;24.060;2023-04-30T02:42:41;98964.50;;;2.44;100.00
61757;BME280;57225;61.460;24.060;2023-04-30T02:45:26;98967.31;;;2.51;100.00
61757;BME280;57225;61.460;24.060;2023-04-30T02:48:10;98959.47;;;2.53;100.00
61757;BME280;57225;61.460;24.060;2023-04-30T02:50:55;98959.94;;;2.62;100.00
61757;BME280;57225;61.460;24.060;2023-04-30T02:53:39;98953.66;;;2.62;100.00
61757;BME280;57225;61.460;24.060;2023-04-30T02:56:23;98960.84;;;2.73;100.00
61757;BME280;57225;61.460;24.060;2023-04-30T02:59:08;98956.56;;;2.76;100.00
61757;BME280;57225;61.460;24.060;2023-04-30T03:01:52;98956.19;;;2.77;100.00
61757;BME280;57225;61.460;24.060;2023-04-30T03:04:37;98951.84;;;2.80;100.00
61757;BME280;57225;61.460;24.060;2023-04-30T03:07:22;98952.34;;;2.89;100.00
61757;BME280;57225;61.460;24.060;2023-04-30T03:10:07;98947.28;;;2.98;100.00
61757;BME280;57225;61.460;24.060;2023-04-30T03:12:51;98947.66;;;2.93;100.00
61757;BME280;57225;61.460;24.060;2023-04-30T03:15:36;98945.34;;;2.99;100.00
61757;BME280;57225;61.460;24.060;2023-04-30T03:18:21;98939.47;;;3.04;100.00
61757;BME280;57225;61.460;24.060;2023-04-30T03:21:05;98946.16;;;3.03;100.00
61757;BME280;57225;61.460;24.060;2023-04-30T03:23:50;98937.94;;;3.10;100.00
61757;BME280;57225;61.460;24.060;2023-04-30T03:26:34;98936.78;;;3.11;100.00
61757;BME280;57225;61.460;24.060;2023-04-30T03:29:20;98933.28;;;3.14;100.00
61757;BME280;57225;61.460;24.060;2023-04-30T03:32:04;98930.16;;;3.19;100.00
61757;BME280;57225;61.460;24.060;2023-04-30T03:34:49;98926.19;;;3.13;100.00
61757;BME280;57225;61.460;24.060;2023-04-30T03:37:33;98900.56;;;3.02;100.00
61757;BME280;57225;61.460;24.060;2023-04-30T03:40:19;98922.69;;;3.16;100.00
61757;BME280;57225;61.460;24.060;2023-04-30T03:43:04;98917.97;;;3.20;100.00
61757;BME280;57225;61.460;24.060;2023-04-30T03:45:49;98911.69;;;3.19;100.00
61757;BME280;57225;61.460;24.060;2023-04-30T03:48:49;98910.88;;;3.19;100.00
61757;BME280;57225;61.460;24.060;2023-04-30T03:51:33;98914.84;;;3.25;100.00
61757;BME280;57225;61.460;24.060;2023-04-30T03:54:22;98903.00;;;3.14;100.00
61757;BME280;57225;61.460;24.060;2023-04-30T03:57:07;98906.97;;;3.20;100.00
61757;BME280;57225;61.460;24.060;2023-04-30T03:59:53;98899.13;;;3.26;100.00
61757;BME280;57225;61.460;24.060;2023-04-30T04:02:38;98906.66;;;3.32;100.00
61757;BME280;57225;61.460;24.060;2023-04-30T04:05:24;98901.13;;;3.32;100.00
61757;BME280;57225;61.460;24.060;2023-04-30T04:08:09;98906.66;;;3.32;100.00
61757;BME280;57225;61.460;24.060;2023-04-30T04:10:53;98911.00;;;3.37;100.00
61757;BME280;57225;61.460;24.060;2023-04-30T04:13:38;98901.19;;;3.43;100.00
61757;BME280;57225;61.460;24.060;2023-04-30T04:16:22;98902.34;;;3.42;100.00
61757;BME280;57225;61.460;24.060;2023-04-30T04:19:07;98896.09;;;3.45;100.00
61757;BME280;57225;61.460;24.060;2023-04-30T04:21:51;98907.13;;;3.48;100.00
61757;BME280;57225;61.460;24.060;2023-04-30T04:24:35;98903.19;;;3.46;100.00
61757;BME280;57225;61.460;24.060;2023-04-30T04:27:21;98893.34;;;3.48;100.00
61757;BME280;57225;61.460;24.060;2023-04-30T04:30:06;98901.59;;;3.48;100.00
61757;BME280;57225;61.460;24.060;2023-04-30T04:32:51;98899.66;;;3.45;100.00
61757;BME280;57225;61.460;24.060;2023-04-30T04:35:36;98893.75;;;3.50;100.00
61757;BME280;57225;61.460;24.060;2023-04-30T04:38:21;98910.00;;;3.66;100.00
61757;BME280;57225;61.460;24.060;2023-04-30T04:41:05;98899.75;;;3.74;100.00
61757;BME280;57225;61.460;24.060;2023-04-30T04:43:50;98912.78;;;3.77;100.00
61757;BME280;57225;61.460;24.060;2023-04-30T04:46:35;98903.00;;;3.90;100.00
61757;BME280;57225;61.460;24.060;2023-04-30T04:49:21;98895.13;;;3.85;100.00
61757;BME280;57225;61.460;24.060;2023-04-30T04:52:06;98902.97;;;3.86;100.00
61757;BME280;57225;61.460;24.060;2023-04-30T04:54:50;98895.88;;;3.82;100.00
61757;BME280;57225;61.460;24.060;2023-04-30T04:57:35;98901.75;;;3.80;100.00
61757;BME280;57225;61.460;24.060;2023-04-30T05:00:19;98895.13;;;3.85;100.00
61757;BME280;57225;61.460;24.060;2023-04-30T05:03:05;98893.91;;;3.82;100.00
61757;BME280;57225;61.460;24.060;2023-04-30T05:05:50;98894.69;;;3.83;100.00
61757;BME280;57225;61.460;24.060;2023-04-30T05:08:35;98896.31;;;3.94;100.00
61757;BME280;57225;61.460;24.060;2023-04-30T05:11:20;98891.22;;;4.07;100.00
61757;BME280;57225;61.460;24.060;2023-04-30T05:14:05;98898.34;;;4.15;100.00
61757;BME280;57225;61.460;24.060;2023-04-30T05:16:50;98899.53;;;4.14;100.00
61757;BME280;57225;61.460;24.060;2023-04-30T05:19:34;98903.47;;;4.13;100.00
61757;BME280;57225;61.460;24.060;2023-04-30T05:22:19;98901.91;;;4.16;100.00
61757;BME280;57225;61.460;24.060;2023-04-30T05:25:04;98893.63;;;4.16;100.00
61757;BME280;57225;61.460;24.060;2023-04-30T05:27:50;98898.00;;;4.27;100.00
61757;BME280;57225;61.460;24.060;2023-04-30T05:30:34;98897.63;;;4.39;100.00
61757;BME280;57225;61.460;24.060;2023-04-30T05:33:19;98887.75;;;4.45;100.00
61757;BME280;57225;61.460;24.060;2023-04-30T05:36:04;98890.53;;;4.53;100.00
61757;BME280;57225;61.460;24.060;2023-04-30T05:38:49;98862.53;;;4.33;100.00
61757;BME280;57225;61.460;24.060;2023-04-30T05:41:33;98892.88;;;4.43;100.00
61757;BME280;57225;61.460;24.060;2023-04-30T05:44:18;98856.25;;;4.29;100.00
61757;BME280;57225;61.460;24.060;2023-04-30T05:47:14;98886.22;;;4.55;100.00
61757;BME280;57225;61.460;24.060;2023-04-30T05:50:01;98869.63;;;4.27;100.00
61757;BME280;57225;61.460;24.060;2023-04-30T05:52:45;98887.00;;;4.49;100.00
61757;BME280;57225;61.460;24.060;2023-04-30T05:55:30;98888.97;;;4.55;100.00
61757;BME280;57225;61.460;24.060;2023-04-30T05:58:16;98888.16;;;4.51;100.00
61757;BME280;57225;61.460;24.060;2023-04-30T06:01:00;98887.75;;;4.49;100.00
61757;BME280;57225;61.460;24.060;2023-04-30T06:03:45;98893.28;;;4.45;100.00
61757;BME280;57225;61.460;24.060;2023-04-30T06:06:30;98891.72;;;4.41;100.00
61757;BME280;57225;61.460;24.060;2023-04-30T06:09:18;98887.34;;;4.36;100.00
61757;BME280;57225;61.460;24.060;2023-04-30T06:12:03;98896.84;;;4.42;100.00
61757;BME280;57225;61.460;24.060;2023-04-30T06:14:48;98899.97;;;4.41;100.00
61757;BME280;57225;61.460;24.060;2023-04-30T06:17:32;98898.81;;;4.45;100.00
61757;BME280;57225;61.460;24.060;2023-04-30T06:20:18;98893.28;;;4.45;100.00
61757;BME280;57225;61.460;24.060;2023-04-30T06:23:02;98893.69;;;4.62;100.00
61757;BME280;57225;61.460;24.060;2023-04-30T06:25:47;98887.78;;;4.88;100.00
61757;BME280;57225;61.460;24.060;2023-04-30T06:28:31;98886.97;;;5.12;100.00
61757;BME280;57225;61.460;24.060;2023-04-30T06:31:17;98887.75;;;5.23;100.00
61757;BME280;57225;61.460;24.060;2023-04-30T06:34:01;98895.25;;;5.19;100.00
61757;BME280;57225;61.460;24.060;2023-04-30T06:36:47;98894.88;;;5.24;100.00
61757;BME280;57225;61.460;24.060;2023-04-30T06:39:31;98892.50;;;5.12;100.00
61757;BME280;57225;61.460;24.060;2023-04-30T06:42:16;98895.66;;;5.18;100.00
61757;BME280;57225;61.460;24.060;2023-04-30T06:45:01;98898.00;;;5.26;100.00
61757;BME280;57225;61.460;24.060;2023-04-30T06:47:46;98888.94;;;5.30;100.00
61757;BME280;57225;61.460;24.060;2023-04-30T06:50:30;98892.88;;;5.25;100.00
61757;BME280;57225;61.460;24.060;2023-04-30T06:53:16;98890.88;;;5.33;100.00
61757;BME280;57225;61.460;24.060;2023-04-30T06:56:01;98891.69;;;5.37;100.00
61757;BME280;57225;61.460;24.060;2023-04-30T06:58:46;98901.56;;;5.31;100.00
61757;BME280;57225;61.460;24.060;2023-04-30T07:01:33;98894.44;;;5.26;100.00
61757;BME280;57225;61.460;24.060;2023-04-30T07:04:17;98906.69;;;5.07;100.00
61757;BME280;57225;61.460;24.060;2023-04-30T07:07:03;98905.16;;;4.85;100.00
61757;BME280;57225;61.460;24.060;2023-04-30T07:09:48;98908.28;;;4.69;100.00
61757;BME280;57225;61.460;24.060;2023-04-30T07:12:33;98911.44;;;4.61;100.00
61757;BME280;57225;61.460;24.060;2023-04-30T07:15:18;98918.53;;;4.55;100.00
61757;BME280;57225;61.460;24.060;2023-04-30T07:18:03;98915.34;;;4.35;100.00
61757;BME280;57225;61.460;24.060;2023-04-30T07:20:47;98931.09;;;4.38;100.00
61757;BME280;57225;61.460;24.060;2023-04-30T07:23:32;98929.50;;;4.37;100.00
61757;BME280;57225;61.460;24.060;2023-04-30T07:26:16;98930.28;;;4.30;100.00
61757;BME280;57225;61.460;24.060;2023-04-30T07:29:01;98933.06;;;4.34;100.00
61757;BME280;57225;61.460;24.060;2023-04-30T07:31:48;98931.06;;;4.31;100.00
61757;BME280;57225;61.460;24.060;2023-04-30T07:34:32;98940.94;;;4.28;100.00
61757;BME280;57225;61.460;24.060;2023-04-30T07:37:16;98940.91;;;4.21;100.00
61757;BME280;57225;61.460;24.060;2023-04-30T07:40:01;98935.34;;;4.07;100.00
61757;BME280;57225;61.460;24.060;2023-04-30T07:42:46;98939.66;;;3.97;100.00
61757;BME280;57225;61.460;24.060;2023-04-30T07:45:31;98940.44;;;4.01;100.00
61757;BME280;57225;61.460;24.060;2023-04-30T07:48:16;98936.94;;;4.04;100.00
61757;BME280;57225;61.460;24.060;2023-04-30T07:51:01;98948.38;;;4.17;100.00
61757;BME280;57225;61.460;24.060;2023-04-30T07:53:46;98946.06;;;4.30;100.00
61757;BME280;57225;61.460;24.060;2023-04-30T07:56:31;98946.50;;;4.42;100.00
61757;BME280;57225;61.460;24.060;2023-04-30T07:59:15;98944.16;;;4.59;100.00
61757;BME280;57225;61.460;24.060;2023-04-30T08:02:01;98961.91;;;4.61;100.00
61757;BME280;57225;61.460;24.060;2023-04-30T08:04:45;98958.34;;;4.75;100.00
61757;BME280;57225;61.460;24.060;2023-04-30T08:07:30;98969.03;;;4.80;100.00
61757;BME280;57225;61.460;24.060;2023-04-30T08:10:14;98964.31;;;5.05;100.00
61757;BME280;57225;61.460;24.060;2023-04-30T08:12:59;98960.34;;;5.10;100.00
61757;BME280;57225;61.460;24.060;2023-04-30T08:15:44;98965.06;;;5.34;100.00
61757;BME280;57225;61.460;24.060;2023-04-30T08:18:29;98968.22;;;5.54;100.00
61757;BME280;57225;61.460;24.060;2023-04-30T08:21:15;98970.53;;;5.70;100.00
61757;BME280;57225;61.460;24.060;2023-04-30T08:24:01;98972.88;;;5.92;100.00
61757;BME280;57225;61.460;24.060;2023-04-30T08:26:45;98976.84;;;5.91;100.00
61757;BME280;57225;61.460;24.060;2023-04-30T08:29:30;98970.91;;;5.89;100.00
61757;BME280;57225;61.460;24.060;2023-04-30T08:32:14;98965.72;;;6.13;100.00
61757;BME280;57225;61.460;24.060;2023-04-30T08:34:59;98966.84;;;6.26;100.00
61757;BME280;57225;61.460;24.060;2023-04-30T08:37:43;98969.41;;;6.58;100.00
61757;BME280;57225;61.460;24.060;2023-04-30T08:40:29;98972.22;;;6.54;100.00
61757;BME280;57225;61.460;24.060;2023-04-30T08:43:14;98975.50;;;6.97;100.00
61757;BME280;57225;61.460;24.060;2023-04-30T08:45:59;98969.69;;;7.29;100.00
61757;BME280;57225;61.460;24.060;2023-04-30T08:48:50;98985.31;;;7.53;99.32
61757;BME280;57225;61.460;24.060;2023-04-30T08:51:34;98988.34;;;7.25;95.03
61757;BME280;57225;61.460;24.060;2023-04-30T08:54:19;98997.78;;;6.79;95.84
61757;BME280;57225;61.460;24.060;2023-04-30T08:57:04;98994.72;;;6.60;99.20
61757;BME280;57225;61.460;24.060;2023-04-30T08:59:49;98995.88;;;7.21;97.66
61757;BME280;57225;61.460;24.060;2023-04-30T09:02:34;98980.47;;;7.64;93.76
61757;BME280;57225;61.460;24.060;2023-04-30T09:05:18;98970.25;;;7.58;93.95
61757;BME280;57225;61.460;24.060;2023-04-30T09:08:03;98995.38;;;8.15;91.95
61757;BME280;57225;61.460;24.060;2023-04-30T09:10:47;98993.50;;;7.67;86.15
61757;BME280;57225;61.460;24.060;2023-04-30T09:13:40;98999.63;;;6.97;92.07
61757;BME280;57225;61.460;24.060;2023-04-30T09:16:26;98999.97;;;7.06;94.20
61757;BME280;57225;61.460;24.060;2023-04-30T09:19:42;99005.59;;;6.92;95.71
61757;BME280;57225;61.460;24.060;2023-04-30T09:22:26;99016.88;;;6.60;98.64
61757;BME280;57225;61.460;24.060;2023-04-30T09:25:11;99023.41;;;6.11;99.16
61757;BME280;57225;61.460;24.060;2023-04-30T09:28:11;99017.53;;;5.87;100.00
61757;BME280;57225;61.460;24.060;2023-04-30T09:30:56;99025.00;;;6.04;100.00
61757;BME280;57225;61.460;24.060;2023-04-30T09:33:47;99019.03;;;6.17;100.00
61757;BME280;57225;61.460;24.060;2023-04-30T09:36:32;99020.19;;;6.23;100.00
61757;BME280;57225;61.460;24.060;2023-04-30T09:39:17;99015.44;;;6.27;98.69
61757;BME280;57225;61.460;24.060;2023-04-30T09:42:09;99021.69;;;6.49;98.81
61757;BME280;57225;61.460;24.060;2023-04-30T09:44:54;99031.66;;;6.25;99.61
61757;BME280;57225;61.460;24.060;2023-04-30T09:47:38;99031.31;;;5.94;100.00
61757;BME280;57225;61.460;24.060;2023-04-30T09:50:25;99043.19;;;5.91;100.00
61757;BME280;57225;61.460;24.060;2023-04-30T09:53:12;99054.25;;;5.74;100.00
61757;BME280;57225;61.460;24.060;2023-04-30T09:55:57;99048.69;;;6.09;100.00
61757;BME280;57225;61.460;24.060;2023-04-30T09:58:52;99055.41;;;6.12;100.00
61757;BME280;57225;61.460;24.060;2023-04-30T10:01:37;99044.69;;;6.21;99.19
61757;BME280;57225;61.460;24.060;2023-04-30T10:04:23;99060.28;;;6.80;100.00
61757;BME280;57225;61.460;24.060;2023-04-30T10:07:15;99048.78;;;7.44;97.05
61757;BME280;57225;61.460;24.060;2023-04-30T10:10:07;99048.63;;;8.03;91.22
61757;BME280;57225;61.460;24.060;2023-04-30T10:12:55;99049.22;;;8.59;89.11
61757;BME280;57225;61.460;24.060;2023-04-30T10:15:50;99058.13;;;8.43;85.89
61757;BME280;57225;61.460;24.060;2023-04-30T10:18:38;99055.94;;;8.24;84.54
61757;BME280;57225;61.460;24.060;2023-04-30T10:21:25;99059.47;;;8.31;83.74
61757;BME280;57225;61.460;24.060;2023-04-30T10:24:13;99062.66;;;7.89;85.23
61757;BME280;57225;61.460;24.060;2023-04-30T10:26:58;99071.31;;;7.46;89.21
61757;BME280;57225;61.460;24.060;2023-04-30T10:29:45;99063.72;;;7.57;90.95
61757;BME280;57225;61.460;24.060;2023-04-30T10:32:40;99069.63;;;7.59;90.44
61757;BME280;57225;61.460;24.060;2023-04-30T10:35:29;99070.47;;;8.01;88.53
61757;BME280;57225;61.460;24.060;2023-04-30T10:38:21;99075.25;;;9.02;85.24
61757;BME280;57225;61.460;24.060;2023-04-30T10:41:08;99080.34;;;9.61;82.43
61757;BME280;57225;61.460;24.060;2023-04-30T10:43:57;99087.56;;;9.55;78.54
61757;BME280;57225;61.460;24.060;2023-04-30T10:46:57;99091.84;;;8.75;82.06
61757;BME280;57225;61.460;24.060;2023-04-30T10:49:46;99108.41;;;7.66;85.12
61757;BME280;57225;61.460;24.060;2023-04-30T10:52:32;99125.97;;;6.76;88.83
61757;BME280;57225;61.460;24.060;2023-04-30T10:55:16;99132.06;;;5.61;94.60
61757;BME280;57225;61.460;24.060;2023-04-30T10:58:24;99134.69;;;5.01;98.43
61757;BME280;57225;61.460;24.060;2023-04-30T11:01:14;99132.63;;;4.73;100.00
61757;BME280;57225;61.460;24.060;2023-04-30T11:09:41;99126.09;;;5.24;100.00
61757;BME280;57225;61.460;24.060;2023-04-30T11:12:27;99128.91;;;5.66;100.00
61757;BME280;57225;61.460;24.060;2023-04-30T11:15:13;99134.78;;;6.43;100.00
61757;BME280;57225;61.460;24.060;2023-04-30T11:17:59;99131.72;;;7.14;100.00
61757;BME280;57225;61.460;24.060;2023-04-30T11:20:50;99137.50;;;7.96;94.67
61757;BME280;57225;61.460;24.060;2023-04-30T11:23:35;99135.38;;;8.85;93.90
61757;BME280;57225;61.460;24.060;2023-04-30T11:26:20;99130.84;;;8.99;88.13
61757;BME280;57225;61.460;24.060;2023-04-30T11:29:05;99137.63;;;8.64;88.41
61757;BME280;57225;61.460;24.060;2023-04-30T11:31:50;99137.72;;;8.91;85.49
61757;BME280;57225;61.460;24.060;2023-04-30T11:34:35;99154.50;;;8.80;85.99
61757;BME280;57225;61.460;24.060;2023-04-30T11:37:28;99177.38;;;7.61;90.27
61757;BME280;57225;61.460;24.060;2023-04-30T11:40:13;99187.78;;;5.95;97.58
61757;BME280;57225;61.460;24.060;2023-04-30T11:42:58;99186.50;;;5.47;100.00
61757;BME280;57225;61.460;24.060;2023-04-30T11:45:43;99183.69;;;5.18;100.00
61757;BME280;57225;61.460;24.060;2023-04-30T11:48:46;99194.31;;;5.20;100.00
61757;BME280;57225;61.460;24.060;2023-04-30T11:51:30;99188.47;;;5.43;100.00
61757;BME280;57225;61.460;24.060;2023-04-30T11:54:16;99190.94;;;5.90;100.00
61757;BME280;57225;61.460;24.060;2023-04-30T11:57:01;99200.44;;;6.03;100.00
61757;BME280;57225;61.460;24.060;2023-04-30T11:59:47;99204.78;;;5.94;100.00
61757;BME280;57225;61.460;24.060;2023-04-30T12:02:32;99205.91;;;5.86;100.00
61757;BME280;57225;61.460;24.060;2023-04-30T12:05:17;99205.09;;;5.82;100.00
61757;BME280;57225;61.460;24.060;2023-04-30T12:08:06;99216.13;;;5.53;100.00
61757;BME280;57225;61.460;24.060;2023-04-30T12:10:51;99215.38;;;5.67;100.00
61757;BME280;57225;61.460;24.060;2023-04-30T12:13:36;99234.69;;;5.56;100.00
61757;BME280;57225;61.460;24.060;2023-04-30T12:16:23;99227.03;;;5.04;100.00
61757;BME280;57225;61.460;24.060;2023-04-30T12:19:08;99231.63;;;4.82;100.00
61757;BME280;57225;61.460;24.060;2023-04-30T12:21:52;99248.19;;;4.82;100.00
61757;BME280;57225;61.460;24.060;2023-04-30T12:24:37;99244.69;;;4.85;100.00
61757;BME280;57225;61.460;24.060;2023-04-30T12:27:22;99251.03;;;4.96;100.00
61757;BME280;57225;61.460;24.060;2023-04-30T12:30:07;99246.75;;;5.06;100.00
61757;BME280;57225;61.460;24.060;2023-04-30T12:32:55;99251.88;;;5.07;100.00
61757;BME280;57225;61.460;24.060;2023-04-30T12:35:41;99268.78;;;4.95;100.00
61757;BME280;57225;61.460;24.060;2023-04-30T12:38:27;99256.03;;;4.73;100.00
61757;BME280;57225;61.460;24.060;2023-04-30T12:41:11;99271.00;;;4.72;100.00
61757;BME280;57225;61.460;24.060;2023-04-30T12:44:17;99267.81;;;4.66;100.00
61757;BME280;57225;61.460;24.060;2023-04-30T12:47:17;99276.50;;;4.68;100.00
61757;BME280;57225;61.460;24.060;2023-04-30T12:50:01;99280.91;;;4.76;100.00
61757;BME280;57225;61.460;24.060;2023-04-30T12:52:46;99267.09;;;4.73;100.00
61757;BME280;57225;61.460;24.060;2023-04-30T12:55:31;99296.38;;;4.92;100.00
61757;BME280;57225;61.460;24.060;2023-04-30T12:58:15;99292.16;;;5.15;100.00
61757;BME280;57225;61.460;24.060;2023-04-30T13:01:00;99306.84;;;5.34;100.00
61757;BME280;57225;61.460;24.060;2023-04-30T13:03:44;99310.06;;;5.43;100.00
61757;BME280;57225;61.460;24.060;2023-04-30T13:06:29;99319.50;;;5.35;99.87
61757;BME280;57225;61.460;24.060;2023-04-30T13:09:13;99314.75;;;5.35;100.00
61757;BME280;57225;61.460;24.060;2023-04-30T13:11:59;99321.44;;;5.31;100.00
61757;BME280;57225;61.460;24.060;2023-04-30T13:14:45;99324.22;;;5.31;100.00
61757;BME280;57225;61.460;24.060;2023-04-30T13:17:29;99338.59;;;5.72;99.70
61757;BME280;57225;61.460;24.060;2023-04-30T13:20:17;99333.06;;;5.72;100.00
61757;BME280;57225;61.460;24.060;2023-04-30T13:23:02;99337.69;;;5.43;100.00
61757;BME280;57225;61.460;24.060;2023-04-30T13:25:47;99346.38;;;5.45;100.00
61757;BME280;57225;61.460;24.060;2023-04-30T13:28:31;99360.63;;;5.57;100.00
61757;BME280;57225;61.460;24.060;2023-04-30T13:31:16;99353.28;;;5.10;99.49
61757;BME280;57225;61.460;24.060;2023-04-30T13:34:00;99354.16;;;5.25;99.03
61757;BME280;57225;61.460;24.060;2023-04-30T13:36:45;99356.94;;;5.29;100.00
61757;BME280;57225;61.460;24.060;2023-04-30T13:39:30;99354.31;;;5.57;98.70
61757;BME280;57225;61.460;24.060;2023-04-30T13:42:14;99367.78;;;5.62;100.00
61757;BME280;57225;61.460;24.060;2023-04-30T13:44:59;99361.53;;;5.79;94.11
61757;BME280;57225;61.460;24.060;2023-04-30T13:47:43;99377.28;;;5.68;96.87
61757;BME280;57225;61.460;24.060;2023-04-30T13:50:27;99376.84;;;5.59;96.84
61757;BME280;57225;61.460;24.060;2023-04-30T13:53:12;99389.56;;;5.74;97.32
61757;BME280;57225;61.460;24.060;2023-04-30T13:55:57;99390.84;;;5.87;96.46
61757;BME280;57225;61.460;24.060;2023-04-30T13:58:42;99388.47;;;5.96;95.17
61757;BME280;57225;61.460;24.060;2023-04-30T14:01:27;99393.88;;;5.68;96.16
61757;BME280;57225;61.460;24.060;2023-04-30T14:04:11;99392.56;;;5.44;96.15
61757;BME280;57225;61.460;24.060;2023-04-30T14:06:56;99393.84;;;5.61;97.29
61757;BME280;57225;61.460;24.060;2023-04-30T14:09:41;99402.16;;;5.68;95.31
61757;BME280;57225;61.460;24.060;2023-04-30T14:12:25;99393.91;;;5.82;96.50
61757;BME280;57225;61.460;24.060;2023-04-30T14:15:11;99411.31;;;5.79;94.57
61757;BME280;57225;61.460;24.060;2023-04-30T14:17:56;99409.88;;;6.10;94.49
61757;BME280;57225;61.460;24.060;2023-04-30T14:20:40;99411.44;;;6.15;90.84
61757;BME280;57225;61.460;24.060;2023-04-30T14:23:25;99415.41;;;6.21;92.63
61757;BME280;57225;61.460;24.060;2023-04-30T14:26:09;99417.09;;;6.64;91.99
61757;BME280;57225;61.460;24.060;2023-04-30T14:28:55;99415.13;;;6.65;88.88
61757;BME280;57225;61.460;24.060;2023-04-30T14:31:39;99420.22;;;6.34;90.34
61757;BME280;57225;61.460;24.060;2023-04-30T14:34:24;99427.75;;;6.44;92.50
61757;BME280;57225;61.460;24.060;2023-04-30T14:37:10;99428.78;;;6.01;92.92
61757;BME280;57225;61.460;24.060;2023-04-30T14:39:55;99426.84;;;6.09;94.73
61757;BME280;57225;61.460;24.060;2023-04-30T14:42:39;99435.06;;;5.91;98.10
61757;BME280;57225;61.460;24.060;2023-04-30T14:45:24;99436.94;;;5.76;96.92
61757;BME280;57225;61.460;24.060;2023-04-30T14:48:11;99435.81;;;5.81;97.23
61757;BME280;57225;61.460;24.060;2023-04-30T14:50:55;99441.03;;;5.96;99.84